Time;durP1;ratioP1;P1;durP2;ratioP2;P2;SDS_P1;SDS_P2;PMS_P1;PMS_P2;Temp;Humidity;BMP_temperature;BMP_pressure;BME280_temperature;BME280_humidity;BME280_pressure;Samples;Min_cycle;Max_cycle;Signal;HPM_P1;HPM_P2
2022/11/13 00:02:22;;;;;;;24.77;17.90;;;;;;;;;;5072132;28;20195;-68
2022/11/13 00:04:47;;;;;;;26.13;17.40;;;;;;;;;;5081967;28;20181;-66
2022/11/13 00:07:13;;;;;;;29.13;18.40;;;;;;;;;;5073662;28;20184;-68
2022/11/13 00:09:38;;;;;;;28.53;18.30;;;;;;;;;;5081859;28;20557;-69
2022/11/13 00:12:03;;;;;;;28.93;18.53;;;;;;;;;;5072305;28;20195;-69
2022/11/13 00:14:29;;;;;;;24.13;18.00;;;;;;;;;;5079269;28;20207;-67
2022/11/13 00:16:54;;;;;;;29.10;19.20;;;;;;;;;;5068243;28;20660;-67
2022/11/13 00:19:19;;;;;;;27.03;17.63;;;;;;;;;;5075159;28;20677;-67
2022/11/13 00:21:45;;;;;;;25.60;18.07;;;;;;;;;;5080212;28;20176;-67
2022/11/13 00:24:10;;;;;;;26.17;17.77;;;;;;;;;;5076377;28;20192;-67
2022/11/13 00:26:36;;;;;;;27.07;17.87;;;;;;;;;;5079256;28;20177;-67
2022/11/13 00:29:02;;;;;;;27.80;17.97;;;;;;;;;;5068410;28;20338;-67
2022/11/13 00:31:28;;;;;;;24.47;17.20;;;;;;;;;;5071131;28;20287;-67
2022/11/13 00:33:54;;;;;;;26.27;17.60;;;;;;;;;;5065820;28;20189;-67
2022/11/13 00:36:22;;;;;;;29.27;17.40;;;;;;;;;;5077695;28;20183;-67
2022/11/13 00:38:48;;;;;;;25.73;17.67;;;;;;;;;;5073674;28;20185;-67
2022/11/13 00:41:13;;;;;;;25.50;17.00;;;;;;;;;;5075927;28;20617;-67
2022/11/13 00:43:39;;;;;;;25.93;17.57;;;;;;;;;;5076721;28;20184;-67
2022/11/13 00:46:05;;;;;;;25.40;17.47;;;;;;;;;;5075985;28;20184;-67
2022/11/13 00:48:30;;;;;;;27.37;17.37;;;;;;;;;;5073681;28;20509;-68
2022/11/13 00:50:56;;;;;;;23.73;17.00;;;;;;;;;;5084506;28;20208;-68
2022/11/13 00:53:21;;;;;;;25.27;16.97;;;;;;;;;;5075782;28;20697;-68
2022/11/13 00:55:47;;;;;;;26.03;16.60;;;;;;;;;;5091509;28;20180;-69
2022/11/13 00:58:13;;;;;;;26.63;16.90;;;;;;;;;;5072676;28;20619;-68
2022/11/13 01:00:43;;;;;;;24.77;17.40;;;;;;;;;;5070346;28;20260;-68
2022/11/13 01:03:09;;;;;;;25.30;17.20;;;;;;;;;;5073304;28;20188;-68
2022/11/13 01:05:36;;;;;;;22.50;16.77;;;;;;;;;;5073912;28;20185;-68
2022/11/13 01:08:02;;;;;;;23.30;15.47;;;;;;;;;;5071453;28;20184;-68
2022/11/13 01:10:28;;;;;;;26.27;16.73;;;;;;;;;;5085292;28;20223;-68
2022/11/13 01:12:53;;;;;;;30.40;16.33;;;;;;;;;;5072252;28;20643;-68
2022/11/13 01:15:18;;;;;;;23.53;16.37;;;;;;;;;;5079765;28;20211;-68
2022/11/13 01:17:44;;;;;;;24.97;17.30;;;;;;;;;;5078968;28;20189;-68
2022/11/13 01:20:09;;;;;;;28.23;17.13;;;;;;;;;;5090505;28;20168;-68
2022/11/13 01:22:35;;;;;;;22.20;16.00;;;;;;;;;;5084866;28;20211;-68
2022/11/13 01:25:00;;;;;;;23.47;16.17;;;;;;;;;;5089111;28;20207;-68
2022/11/13 01:27:25;;;;;;;22.10;16.10;;;;;;;;;;5077723;28;20199;-68
2022/11/13 01:29:51;;;;;;;22.07;15.27;;;;;;;;;;5082511;28;20212;-68
2022/11/13 01:32:16;;;;;;;20.77;14.77;;;;;;;;;;5088837;28;20231;-68
2022/11/13 01:34:41;;;;;;;23.43;15.20;;;;;;;;;;5071509;28;20399;-68
2022/11/13 01:37:07;;;;;;;26.00;16.60;;;;;;;;;;5090784;28;20275;-69
2022/11/13 01:39:32;;;;;;;23.00;15.40;;;;;;;;;;5083193;28;20259;-69
2022/11/13 01:41:57;;;;;;;24.47;16.17;;;;;;;;;;5089638;28;20204;-69
2022/11/13 01:44:23;;;;;;;20.90;14.57;;;;;;;;;;5070877;28;20192;-69
2022/11/13 01:46:54;;;;;;;24.93;16.43;;;;;;;;;;5077307;28;20520;-68
2022/11/13 01:49:36;;;;;;;24.97;17.23;;;;;;;;;;5075542;28;20205;-69
2022/11/13 01:52:05;;;;;;;21.40;15.23;;;;;;;;;;5089720;28;20699;-69
2022/11/13 01:54:56;;;;;;;23.13;16.17;;;;;;;;;;5087599;28;20177;-69
2022/11/13 01:57:21;;;;;;;24.83;17.00;;;;;;;;;;5078229;28;20283;-69
2022/11/13 01:59:54;;;;;;;26.80;16.83;;;;;;;;;;5088881;28;20292;-69
2022/11/13 02:02:19;;;;;;;23.93;16.47;;;;;;;;;;5083178;28;20663;-68
2022/11/13 02:04:45;;;;;;;25.53;16.60;;;;;;;;;;5070258;28;20184;-68
2022/11/13 02:07:13;;;;;;;24.80;15.97;;;;;;;;;;5086240;28;20658;-68
2022/11/13 02:09:42;;;;;;;24.90;16.77;;;;;;;;;;5070244;28;20204;-68
2022/11/13 02:12:11;;;;;;;26.03;16.73;;;;;;;;;;5070901;28;20180;-69
2022/11/13 02:14:40;;;;;;;27.10;16.33;;;;;;;;;;5070934;28;20183;-69
2022/11/13 02:17:10;;;;;;;26.60;17.07;;;;;;;;;;5074198;28;20181;-69
2022/11/13 02:19:39;;;;;;;29.90;17.83;;;;;;;;;;5070366;28;20184;-68
2022/11/13 02:22:18;;;;;;;29.33;16.97;;;;;;;;;;5070867;28;20188;-68
2022/11/13 02:24:45;;;;;;;27.77;17.27;;;;;;;;;;5078218;28;20187;-68
2022/11/13 02:27:21;;;;;;;29.40;18.77;;;;;;;;;;5082801;28;20173;-68
2022/11/13 02:29:46;;;;;;;27.53;17.97;;;;;;;;;;5090015;28;20200;-69
2022/11/13 02:32:12;;;;;;;26.57;17.53;;;;;;;;;;5075034;28;20232;-69
2022/11/13 02:34:37;;;;;;;27.27;18.37;;;;;;;;;;5088576;28;20191;-69
2022/11/13 02:37:02;;;;;;;26.00;16.67;;;;;;;;;;5077100;28;20304;-69
2022/11/13 02:39:28;;;;;;;24.57;17.47;;;;;;;;;;5070477;28;20184;-68
2022/11/13 02:41:53;;;;;;;27.60;18.67;;;;;;;;;;5075235;28;20193;-68
2022/11/13 02:44:18;;;;;;;28.43;17.57;;;;;;;;;;5073595;28;20176;-68
2022/11/13 02:46:44;;;;;;;27.80;17.27;;;;;;;;;;5077812;28;20212;-69
2022/11/13 02:49:09;;;;;;;25.60;18.33;;;;;;;;;;5086973;28;20223;-69
2022/11/13 02:51:34;;;;;;;26.07;17.30;;;;;;;;;;5089617;28;20184;-69
2022/11/13 02:54:00;;;;;;;27.70;18.77;;;;;;;;;;5073133;28;20184;-69
2022/11/13 02:56:25;;;;;;;28.23;17.63;;;;;;;;;;5072809;28;20611;-68
2022/11/13 02:58:51;;;;;;;29.17;18.33;;;;;;;;;;5071943;28;20173;-68
2022/11/13 03:01:16;;;;;;;27.93;18.60;;;;;;;;;;5085737;28;20605;-68
2022/11/13 03:03:41;;;;;;;28.37;17.67;;;;;;;;;;5071377;28;20216;-68
2022/11/13 03:06:07;;;;;;;25.37;17.73;;;;;;;;;;5068823;28;20302;-68
2022/11/13 03:08:32;;;;;;;29.83;18.27;;;;;;;;;;5077190;28;20504;-68
2022/11/13 03:10:57;;;;;;;28.27;18.00;;;;;;;;;;5084054;28;20678;-68
2022/11/13 03:13:23;;;;;;;25.67;16.90;;;;;;;;;;5085633;28;20262;-69
2022/11/13 03:15:48;;;;;;;25.87;16.73;;;;;;;;;;5073611;28;20528;-69
2022/11/13 03:18:13;;;;;;;27.07;17.50;;;;;;;;;;5082721;28;20199;-69
2022/11/13 03:20:41;;;;;;;26.27;18.20;;;;;;;;;;5084755;28;20168;-69
2022/11/13 03:23:07;;;;;;;25.03;17.63;;;;;;;;;;5075490;28;20187;-69
2022/11/13 03:25:33;;;;;;;26.40;18.27;;;;;;;;;;5073760;28;20649;-69
2022/11/13 03:27:58;;;;;;;24.03;17.37;;;;;;;;;;5078647;28;20582;-69
2022/11/13 03:30:24;;;;;;;27.40;16.40;;;;;;;;;;5092574;28;20337;-68
2022/11/13 03:32:56;;;;;;;26.10;17.43;;;;;;;;;;5072945;28;20224;-68
2022/11/13 03:35:23;;;;;;;22.67;16.50;;;;;;;;;;5077926;28;20241;-68
2022/11/13 03:37:48;;;;;;;26.30;17.63;;;;;;;;;;5087325;28;20180;-68
2022/11/13 03:40:14;;;;;;;23.27;16.33;;;;;;;;;;5078861;28;20359;-68
2022/11/13 03:42:39;;;;;;;22.60;16.27;;;;;;;;;;5076488;28;20176;-68
2022/11/13 03:45:05;;;;;;;22.77;16.57;;;;;;;;;;5076353;28;20279;-69
2022/11/13 03:47:30;;;;;;;25.70;16.07;;;;;;;;;;5069716;28;20181;-69
2022/11/13 03:49:55;;;;;;;24.80;17.37;;;;;;;;;;5073988;28;20204;-68
2022/11/13 03:52:21;;;;;;;27.00;17.10;;;;;;;;;;5071094;28;20272;-68
2022/11/13 03:54:46;;;;;;;27.40;17.57;;;;;;;;;;5071127;28;20179;-69
2022/11/13 03:57:11;;;;;;;25.70;16.13;;;;;;;;;;5072948;28;20230;-69
2022/11/13 03:59:36;;;;;;;25.60;16.63;;;;;;;;;;5067977;28;20526;-68
2022/11/13 04:02:02;;;;;;;31.47;16.30;;;;;;;;;;5074111;28;20176;-68
2022/11/13 04:04:27;;;;;;;24.70;16.03;;;;;;;;;;5072972;28;20636;-68
2022/11/13 04:06:53;;;;;;;22.50;15.53;;;;;;;;;;5069689;28;20219;-69
2022/11/13 04:09:18;;;;;;;26.20;15.03;;;;;;;;;;5074337;28;20200;-69
2022/11/13 04:11:43;;;;;;;23.60;15.80;;;;;;;;;;5081877;28;20186;-68
2022/11/13 04:14:08;;;;;;;24.20;15.47;;;;;;;;;;5083465;28;20263;-68
2022/11/13 04:16:34;;;;;;;25.67;15.60;;;;;;;;;;5084036;28;20184;-68
2022/11/13 04:18:59;;;;;;;22.53;14.63;;;;;;;;;;5071875;28;20181;-68
2022/11/13 04:21:26;;;;;;;21.13;15.67;;;;;;;;;;5076559;28;20178;-68
2022/11/13 04:23:52;;;;;;;26.60;15.87;;;;;;;;;;5079260;28;20188;-68
2022/11/13 04:26:17;;;;;;;21.47;15.40;;;;;;;;;;5083318;28;20547;-68
2022/11/13 04:28:42;;;;;;;24.97;15.23;;;;;;;;;;5080339;28;20177;-68
2022/11/13 04:31:08;;;;;;;22.57;14.57;;;;;;;;;;5075646;28;20234;-69
2022/11/13 04:33:33;;;;;;;20.77;14.30;;;;;;;;;;5083830;28;20590;-68
2022/11/13 04:35:58;;;;;;;22.33;14.63;;;;;;;;;;5085972;28;20191;-68
2022/11/13 04:38:24;;;;;;;24.17;14.47;;;;;;;;;;5086021;28;20527;-68
2022/11/13 04:42:47;;;;;;;21.37;14.13;;;;;;;;;;5085184;28;20176;-68
2022/11/13 04:43:38;;;;;;;22.53;14.07;;;;;;;;;;5076142;28;20233;-68
2022/11/13 04:46:03;;;;;;;21.53;13.63;;;;;;;;;;5072596;28;20177;-69
2022/11/13 04:48:29;;;;;;;20.57;13.50;;;;;;;;;;5087719;28;20207;-68
2022/11/13 04:50:54;;;;;;;17.20;12.77;;;;;;;;;;5079930;28;20208;-69
2022/11/13 04:53:19;;;;;;;19.40;13.50;;;;;;;;;;5081939;28;20284;-68
2022/11/13 04:55:45;;;;;;;19.03;12.93;;;;;;;;;;5082993;28;20618;-68
2022/11/13 04:58:10;;;;;;;20.17;13.63;;;;;;;;;;5079609;28;20184;-68
2022/11/13 05:00:35;;;;;;;22.47;13.80;;;;;;;;;;5083826;28;20586;-68
2022/11/13 05:03:00;;;;;;;18.93;13.60;;;;;;;;;;5076878;28;20235;-68
2022/11/13 05:05:26;;;;;;;19.27;13.67;;;;;;;;;;5074458;28;20202;-68
2022/11/13 05:07:51;;;;;;;20.07;13.80;;;;;;;;;;5076199;28;20246;-68
2022/11/13 05:10:17;;;;;;;21.67;13.67;;;;;;;;;;5070905;28;20257;-69
2022/11/13 05:12:42;;;;;;;18.77;13.43;;;;;;;;;;5079674;28;20230;-68
2022/11/13 05:15:07;;;;;;;20.57;13.77;;;;;;;;;;5083095;28;20188;-68
2022/11/13 05:17:33;;;;;;;22.93;14.23;;;;;;;;;;5083590;28;20177;-68
2022/11/13 05:19:58;;;;;;;20.53;14.27;;;;;;;;;;5081254;28;20276;-68
2022/11/13 05:22:23;;;;;;;19.57;14.10;;;;;;;;;;5079743;28;20179;-69
2022/11/13 05:24:49;;;;;;;21.93;14.30;;;;;;;;;;5081925;28;20180;-69
2022/11/13 05:27:14;;;;;;;19.77;12.97;;;;;;;;;;5079430;28;20196;-68
2022/11/13 05:29:39;;;;;;;23.73;14.50;;;;;;;;;;5072829;28;20212;-70
2022/11/13 05:32:05;;;;;;;21.43;14.60;;;;;;;;;;5075584;28;20235;-68
2022/11/13 05:34:30;;;;;;;21.40;14.27;;;;;;;;;;5075789;28;20229;-68
2022/11/13 05:36:55;;;;;;;19.00;13.70;;;;;;;;;;5088583;28;20674;-69
2022/11/13 05:39:21;;;;;;;19.73;14.27;;;;;;;;;;5085089;28;20263;-68
2022/11/13 05:41:46;;;;;;;20.10;13.60;;;;;;;;;;5078924;28;20176;-68
2022/11/13 05:44:11;;;;;;;25.97;15.63;;;;;;;;;;5084218;28;20308;-69
2022/11/13 05:46:37;;;;;;;22.77;14.53;;;;;;;;;;5077059;28;20225;-68
2022/11/13 05:49:03;;;;;;;23.47;14.43;;;;;;;;;;5073318;28;20235;-68
2022/11/13 05:51:31;;;;;;;23.53;14.23;;;;;;;;;;5080895;28;20172;-68
2022/11/13 05:53:57;;;;;;;18.83;13.30;;;;;;;;;;5084059;28;20188;-68
2022/11/13 05:56:28;;;;;;;21.00;13.97;;;;;;;;;;5073495;28;20192;-68
2022/11/13 05:58:56;;;;;;;21.37;14.60;;;;;;;;;;5086630;28;20187;-68
2022/11/13 06:01:30;;;;;;;24.03;15.30;;;;;;;;;;5075428;28;20173;-68
2022/11/13 06:03:57;;;;;;;23.40;15.50;;;;;;;;;;5080557;28;20232;-69
2022/11/13 06:06:23;;;;;;;26.87;15.80;;;;;;;;;;5072789;28;20786;-69
2022/11/13 06:08:50;;;;;;;24.87;15.87;;;;;;;;;;5082836;28;20188;-69
2022/11/13 06:11:18;;;;;;;24.50;15.60;;;;;;;;;;5078957;28;20208;-69
2022/11/13 06:13:45;;;;;;;26.23;16.10;;;;;;;;;;5087408;28;20204;-68
2022/11/13 06:16:20;;;;;;;27.27;15.60;;;;;;;;;;5086656;28;20271;-69
2022/11/13 06:18:47;;;;;;;24.00;15.47;;;;;;;;;;5084959;28;20257;-68
2022/11/13 06:21:16;;;;;;;25.17;15.53;;;;;;;;;;5078345;28;20188;-68
2022/11/13 06:23:42;;;;;;;22.50;15.47;;;;;;;;;;5074972;28;20486;-68
2022/11/13 06:26:13;;;;;;;28.23;15.97;;;;;;;;;;5077481;28;20275;-69
2022/11/13 06:28:38;;;;;;;24.57;16.03;;;;;;;;;;5084284;28;20624;-68
2022/11/13 06:31:10;;;;;;;24.03;15.90;;;;;;;;;;5075123;28;20200;-68
2022/11/13 06:33:36;;;;;;;27.50;16.00;;;;;;;;;;5071648;28;20282;-68
2022/11/13 06:36:03;;;;;;;26.27;16.13;;;;;;;;;;5078506;28;20287;-69
2022/11/13 06:38:31;;;;;;;25.40;15.87;;;;;;;;;;5078646;28;20579;-68
2022/11/13 06:40:56;;;;;;;24.90;15.63;;;;;;;;;;5076740;28;20180;-68
2022/11/13 06:43:22;;;;;;;20.80;14.13;;;;;;;;;;5088277;28;20186;-68
2022/11/13 06:45:47;;;;;;;22.47;14.80;;;;;;;;;;5078078;28;20172;-68
2022/11/13 06:48:12;;;;;;;20.30;14.23;;;;;;;;;;5082977;28;20196;-68
2022/11/13 06:50:38;;;;;;;20.37;14.27;;;;;;;;;;5070974;28;20212;-68
2022/11/13 06:53:03;;;;;;;19.77;13.47;;;;;;;;;;5080435;28;20188;-68
2022/11/13 06:55:28;;;;;;;20.67;13.90;;;;;;;;;;5070380;28;20177;-68
2022/11/13 06:57:54;;;;;;;25.40;13.63;;;;;;;;;;5077777;28;20605;-69
2022/11/13 07:00:19;;;;;;;21.90;14.03;;;;;;;;;;5073388;28;20621;-69
2022/11/13 07:02:48;;;;;;;23.00;14.20;;;;;;;;;;5071832;28;20616;-68
2022/11/13 07:05:14;;;;;;;24.13;14.40;;;;;;;;;;5074310;28;20637;-68
2022/11/13 07:07:39;;;;;;;22.50;14.37;;;;;;;;;;5068819;28;20282;-68
2022/11/13 07:10:05;;;;;;;24.17;14.23;;;;;;;;;;5067459;28;20223;-68
2022/11/13 07:12:30;;;;;;;23.57;14.40;;;;;;;;;;5076159;28;20203;-68
2022/11/13 07:14:56;;;;;;;26.37;15.90;;;;;;;;;;5074129;28;20281;-69
2022/11/13 07:17:21;;;;;;;24.70;14.67;;;;;;;;;;5070635;28;20189;-68
2022/11/13 07:19:46;;;;;;;24.97;15.00;;;;;;;;;;5075162;28;20180;-68
2022/11/13 07:22:12;;;;;;;27.80;16.87;;;;;;;;;;5074440;28;20169;-69
2022/11/13 07:24:37;;;;;;;23.67;14.77;;;;;;;;;;5076070;28;20188;-69
2022/11/13 07:27:03;;;;;;;31.17;17.70;;;;;;;;;;5080404;28;20248;-69
2022/11/13 07:29:28;;;;;;;32.40;20.90;;;;;;;;;;5071048;28;20262;-68
2022/11/13 07:31:53;;;;;;;30.90;18.67;;;;;;;;;;5072808;28;20260;-69
2022/11/13 07:34:18;;;;;;;32.90;20.07;;;;;;;;;;5069304;28;20708;-69
2022/11/13 07:36:44;;;;;;;30.63;19.10;;;;;;;;;;5068988;28;20663;-68
2022/11/13 07:39:09;;;;;;;31.00;19.17;;;;;;;;;;5069306;28;20176;-70
2022/11/13 07:41:35;;;;;;;27.93;18.53;;;;;;;;;;5069632;28;20660;-69
2022/11/13 07:44:00;;;;;;;31.93;19.37;;;;;;;;;;5066604;28;20252;-69
2022/11/13 07:46:25;;;;;;;34.80;20.77;;;;;;;;;;5070031;28;20196;-69
2022/11/13 07:48:51;;;;;;;34.70;20.30;;;;;;;;;;5067843;28;20185;-69
2022/11/13 07:51:16;;;;;;;31.73;20.50;;;;;;;;;;5069556;28;22207;-69
2022/11/13 07:53:41;;;;;;;35.57;21.27;;;;;;;;;;5068561;28;20197;-69
2022/11/13 07:56:07;;;;;;;35.07;22.20;;;;;;;;;;5068000;28;20176;-68
2022/11/13 07:58:32;;;;;;;32.43;22.10;;;;;;;;;;5073177;28;20188;-69
2022/11/13 08:01:05;;;;;;;35.23;22.67;;;;;;;;;;5072287;28;20256;-68
2022/11/13 08:03:30;;;;;;;35.93;22.83;;;;;;;;;;5079068;28;20176;-68
2022/11/13 08:06:04;;;;;;;37.63;25.30;;;;;;;;;;5073500;28;20545;-68
2022/11/13 08:08:30;;;;;;;35.40;22.83;;;;;;;;;;5072222;28;20180;-68
2022/11/13 08:10:55;;;;;;;34.90;22.73;;;;;;;;;;5070542;28;20208;-68
2022/11/13 08:13:20;;;;;;;34.10;23.60;;;;;;;;;;5076656;28;20203;-69
2022/11/13 08:15:46;;;;;;;34.60;22.17;;;;;;;;;;5071582;28;20262;-68
2022/11/13 08:18:11;;;;;;;33.93;22.63;;;;;;;;;;5071333;28;20180;-68
2022/11/13 08:20:36;;;;;;;31.37;21.90;;;;;;;;;;5069938;28;20207;-67
2022/11/13 08:23:03;;;;;;;30.60;20.87;;;;;;;;;;5068258;28;20234;-69
2022/11/13 08:25:29;;;;;;;28.73;19.63;;;;;;;;;;5068651;28;20651;-68
2022/11/13 08:27:55;;;;;;;27.00;20.00;;;;;;;;;;5071894;28;20183;-67
2022/11/13 08:30:22;;;;;;;28.20;20.00;;;;;;;;;;5067654;28;20247;-67
2022/11/13 08:32:47;;;;;;;25.27;18.03;;;;;;;;;;5066949;28;20540;-68
2022/11/13 08:35:13;;;;;;;23.87;18.37;;;;;;;;;;5068612;28;20190;-68
2022/11/13 08:37:39;;;;;;;27.33;18.17;;;;;;;;;;5071330;28;20294;-67
2022/11/13 08:40:05;;;;;;;25.37;18.43;;;;;;;;;;5071249;28;20543;-68
2022/11/13 08:42:30;;;;;;;23.80;16.90;;;;;;;;;;5072105;28;20181;-67
2022/11/13 08:44:56;;;;;;;25.07;18.13;;;;;;;;;;5068231;28;20259;-69
2022/11/13 08:47:21;;;;;;;23.93;17.60;;;;;;;;;;5068670;28;20639;-68
2022/11/13 08:49:46;;;;;;;22.17;16.57;;;;;;;;;;5071623;28;20261;-68
2022/11/13 08:52:12;;;;;;;20.90;15.57;;;;;;;;;;5068880;28;20229;-69
2022/11/13 08:54:37;;;;;;;20.43;14.87;;;;;;;;;;5068524;28;20681;-69
2022/11/13 08:57:02;;;;;;;22.43;15.87;;;;;;;;;;5071183;28;20314;-69
2022/11/13 08:59:28;;;;;;;21.10;14.33;;;;;;;;;;5072570;28;20182;-69
2022/11/13 09:01:58;;;;;;;19.03;14.93;;;;;;;;;;5071549;28;20268;-69
2022/11/13 09:04:26;;;;;;;21.73;14.03;;;;;;;;;;5075362;28;20196;-69
2022/11/13 09:06:52;;;;;;;17.40;13.53;;;;;;;;;;5074689;28;20543;-69
2022/11/13 09:09:19;;;;;;;17.33;12.37;;;;;;;;;;5071104;28;20177;-69
2022/11/13 09:11:44;;;;;;;17.70;12.03;;;;;;;;;;5078570;28;20210;-69
2022/11/13 09:14:09;;;;;;;13.87;11.63;;;;;;;;;;5074172;28;20636;-69
2022/11/13 09:16:35;;;;;;;17.43;11.50;;;;;;;;;;5075668;28;20199;-69
2022/11/13 09:19:01;;;;;;;14.13;10.53;;;;;;;;;;5073554;28;20636;-69
2022/11/13 09:21:27;;;;;;;13.13;10.47;;;;;;;;;;5074872;28;20176;-69
2022/11/13 09:23:52;;;;;;;15.07;10.47;;;;;;;;;;5073019;28;20575;-69
2022/11/13 09:26:17;;;;;;;12.67;9.40;;;;;;;;;;5069367;28;20196;-69
2022/11/13 09:28:43;;;;;;;12.17;9.17;;;;;;;;;;5075085;28;20192;-68
2022/11/13 09:31:08;;;;;;;10.60;8.20;;;;;;;;;;5077244;28;20218;-69
2022/11/13 09:33:34;;;;;;;11.43;8.13;;;;;;;;;;5070956;28;20235;-68
2022/11/13 09:35:59;;;;;;;11.00;7.73;;;;;;;;;;5076044;28;20200;-69
2022/11/13 09:38:25;;;;;;;11.13;8.25;;;;;;;;;;5071461;28;20197;-68
2022/11/13 09:41:02;;;;;;;10.35;8.00;;;;;;;;;;5070134;28;20625;-69
2022/11/13 09:43:37;;;;;;;9.90;7.60;;;;;;;;;;5073385;28;20184;-69
2022/11/13 09:46:22;;;;;;;11.20;8.13;;;;;;;;;;5071683;28;20199;-69
2022/11/13 09:48:55;;;;;;;10.23;7.93;;;;;;;;;;5069862;28;20176;-69
2022/11/13 09:51:36;;;;;;;11.32;8.07;;;;;;;;;;5070086;28;20208;-69
2022/11/13 09:54:08;;;;;;;8.95;7.28;;;;;;;;;;5072783;28;20184;-69
2022/11/13 09:56:43;;;;;;;10.68;8.18;;;;;;;;;;5068538;28;20208;-69
2022/11/13 09:59:33;;;;;;;9.25;7.28;;;;;;;;;;5075141;28;20270;-69
2022/11/13 10:02:20;;;;;;;11.65;8.80;;;;;;;;;;5073641;28;20193;-69
2022/11/13 10:04:59;;;;;;;19.30;13.27;;;;;;;;;;5068743;28;20709;-69
2022/11/13 10:07:40;;;;;;;26.50;17.25;;;;;;;;;;5067715;28;20173;-69
2022/11/13 10:10:24;;;;;;;16.38;11.90;;;;;;;;;;5072078;28;20204;-69
2022/11/13 10:12:53;;;;;;;19.20;12.55;;;;;;;;;;5070196;28;20540;-69
2022/11/13 10:15:19;;;;;;;14.40;10.13;;;;;;;;;;5072855;28;20195;-69
2022/11/13 10:18:11;;;;;;;11.20;8.80;;;;;;;;;;5073531;28;20185;-69
2022/11/13 10:20:50;;;;;;;10.73;8.43;;;;;;;;;;5069521;28;20281;-69
2022/11/13 10:23:28;;;;;;;10.38;7.65;;;;;;;;;;5073635;28;20263;-68
2022/11/13 10:25:55;;;;;;;11.65;8.57;;;;;;;;;;5069756;28;20182;-68
2022/11/13 10:28:23;;;;;;;10.80;8.02;;;;;;;;;;5073035;28;20188;-68
2022/11/13 10:30:49;;;;;;;9.05;7.72;;;;;;;;;;5072476;28;20207;-68
2022/11/13 10:33:20;;;;;;;9.48;7.80;;;;;;;;;;5072291;28;20274;-69
2022/11/13 10:35:57;;;;;;;10.13;7.85;;;;;;;;;;5069420;28;20197;-68
2022/11/13 10:38:43;;;;;;;9.30;7.40;;;;;;;;;;5078992;28;20457;-68
2022/11/13 10:41:15;;;;;;;10.43;7.97;;;;;;;;;;5080747;28;20175;-68
2022/11/13 10:44:24;;;;;;;11.07;7.70;;;;;;;;;;5078393;28;20172;-68
2022/11/13 10:46:50;;;;;;;11.52;8.25;;;;;;;;;;5004296;28;20520;-68
2022/11/13 10:49:24;;;;;;;11.07;8.32;;;;;;;;;;5066523;28;20238;-68
2022/11/13 10:51:55;;;;;;;10.70;8.20;;;;;;;;;;5077727;28;20184;-73
2022/11/13 10:54:31;;;;;;;11.05;8.43;;;;;;;;;;5078036;28;20190;-68
2022/11/13 10:57:03;;;;;;;10.70;7.30;;;;;;;;;;5070639;28;20193;-68
2022/11/13 10:59:43;;;;;;;9.43;7.25;;;;;;;;;;5076946;28;20187;-68
2022/11/13 11:02:23;;;;;;;9.68;6.97;;;;;;;;;;5079928;28;20766;-69
2022/11/13 11:04:48;;;;;;;9.20;6.90;;;;;;;;;;5084699;28;20208;-68
2022/11/13 11:07:23;;;;;;;7.07;6.20;;;;;;;;;;5086649;28;20726;-69
2022/11/13 11:09:49;;;;;;;8.95;6.93;;;;;;;;;;5088437;28;20222;-69
2022/11/13 11:12:23;;;;;;;7.72;6.38;;;;;;;;;;5089153;28;20259;-69
2022/11/13 11:14:55;;;;;;;8.23;6.78;;;;;;;;;;5083793;28;20187;-68
2022/11/13 11:17:26;;;;;;;9.55;7.07;;;;;;;;;;5087358;28;20271;-69
2022/11/13 11:19:59;;;;;;;8.57;6.75;;;;;;;;;;5081085;28;20184;-68
2022/11/13 11:22:28;;;;;;;7.95;6.65;;;;;;;;;;5085916;28;20190;-69
2022/11/13 11:25:09;;;;;;;7.50;6.32;;;;;;;;;;5086322;28;20203;-68
2022/11/13 11:28:09;;;;;;;8.32;6.15;;;;;;;;;;5088084;28;20184;-69
2022/11/13 11:30:43;;;;;;;9.32;6.47;;;;;;;;;;5001147;28;20221;-69
2022/11/13 11:33:15;;;;;;;9.85;6.90;;;;;;;;;;5065831;28;20228;-69
2022/11/13 11:35:47;;;;;;;9.38;6.65;;;;;;;;;;5080322;28;20191;-69
2022/11/13 11:38:24;;;;;;;7.68;5.88;;;;;;;;;;5081596;28;20176;-68
2022/11/13 11:40:55;;;;;;;6.22;5.45;;;;;;;;;;5075760;28;20540;-69
2022/11/13 11:43:38;;;;;;;9.18;6.70;;;;;;;;;;5081776;28;20176;-68
2022/11/13 11:46:04;;;;;;;6.60;5.35;;;;;;;;;;5080659;28;20176;-69
2022/11/13 11:48:30;;;;;;;6.28;5.25;;;;;;;;;;5081858;28;20176;-68
2022/11/13 11:51:00;;;;;;;6.90;4.85;;;;;;;;;;5086920;28;20644;-68
2022/11/13 11:53:55;;;;;;;7.40;5.07;;;;;;;;;;5074704;28;20189;-69
2022/11/13 11:56:34;;;;;;;7.03;5.47;;;;;;;;;;5084567;28;20245;-69
2022/11/13 11:59:20;;;;;;;6.13;5.30;;;;;;;;;;5087955;28;20182;-68
2022/11/13 12:01:54;;;;;;;8.48;5.30;;;;;;;;;;5076908;28;20505;-68
2022/11/13 12:04:52;;;;;;;7.63;5.43;;;;;;;;;;5076370;28;20180;-69
2022/11/13 12:07:46;;;;;;;7.05;5.05;;;;;;;;;;5076679;28;20193;-68
2022/11/13 12:10:21;;;;;;;5.72;4.65;;;;;;;;;;5073974;28;20199;-69
2022/11/13 12:13:06;;;;;;;6.82;4.45;;;;;;;;;;5081972;28;20183;-69
2022/11/13 12:15:57;;;;;;;7.70;4.78;;;;;;;;;;5079921;28;20180;-68
2022/11/13 12:18:26;;;;;;;5.72;4.65;;;;;;;;;;5083240;28;20203;-68
2022/11/13 12:21:17;;;;;;;5.82;3.88;;;;;;;;;;5081794;28;20211;-68
2022/11/13 12:24:00;;;;;;;7.40;4.47;;;;;;;;;;5074739;28;20207;-68
2022/11/13 12:26:38;;;;;;;4.97;4.47;;;;;;;;;;5068007;28;20224;-69
2022/11/13 12:29:30;;;;;;;6.13;4.38;;;;;;;;;;5082759;28;20233;-69
2022/11/13 12:31:55;;;;;;;6.00;4.10;;;;;;;;;;5086815;28;20231;-69
2022/11/13 12:34:30;;;;;;;4.32;3.75;;;;;;;;;;5074037;28;20203;-68
2022/11/13 12:36:56;;;;;;;5.28;4.38;;;;;;;;;;5067293;28;20215;-68
2022/11/13 12:39:53;;;;;;;6.32;4.43;;;;;;;;;;5069333;28;20261;-69
2022/11/13 12:42:38;;;;;;;8.27;5.90;;;;;;;;;;5087186;28;20695;-68
2022/11/13 12:45:29;;;;;;;5.97;5.35;;;;;;;;;;5085177;28;20592;-68
2022/11/13 12:47:54;;;;;;;9.25;6.03;;;;;;;;;;5076067;28;20180;-68
2022/11/13 12:50:30;;;;;;;8.07;6.25;;;;;;;;;;5080094;28;20288;-70
2022/11/13 12:53:01;;;;;;;7.30;6.25;;;;;;;;;;5084653;28;20215;-68
2022/11/13 12:55:35;;;;;;;9.10;5.95;;;;;;;;;;5071961;28;20185;-68
2022/11/13 12:58:19;;;;;;;7.15;5.63;;;;;;;;;;5083867;28;20172;-68
2022/11/13 13:00:56;;;;;;;7.05;5.60;;;;;;;;;;5077754;28;20295;-68
2022/11/13 13:03:30;;;;;;;9.68;6.20;;;;;;;;;;5073437;28;20690;-69
2022/11/13 13:06:11;;;;;;;7.50;5.93;;;;;;;;;;5072416;28;20551;-68
2022/11/13 13:08:59;;;;;;;9.70;5.45;;;;;;;;;;5069798;28;20583;-69
2022/11/13 13:11:31;;;;;;;7.15;5.25;;;;;;;;;;5067056;28;20239;-68
2022/11/13 13:14:22;;;;;;;6.53;5.35;;;;;;;;;;5068574;28;20276;-68
2022/11/13 13:16:48;;;;;;;7.97;5.35;;;;;;;;;;5072647;28;20508;-68
2022/11/13 13:19:27;;;;;;;6.55;5.45;;;;;;;;;;5068616;28;20191;-68
2022/11/13 13:21:53;;;;;;;7.07;5.03;;;;;;;;;;5069953;28;20196;-68
2022/11/13 13:24:34;;;;;;;7.32;5.65;;;;;;;;;;5069288;28;20191;-68
2022/11/13 13:27:00;;;;;;;10.02;5.38;;;;;;;;;;5067501;28;20196;-69
2022/11/13 13:29:28;;;;;;;7.60;5.40;;;;;;;;;;5077361;28;20196;-68
2022/11/13 13:32:05;;;;;;;5.85;5.18;;;;;;;;;;5033803;28;1047387;-68
2022/11/13 13:34:39;;;;;;;5.40;4.40;;;;;;;;;;5072809;28;20188;-68
2022/11/13 13:37:13;;;;;;;6.70;4.70;;;;;;;;;;5074728;28;20667;-68
2022/11/13 13:40:10;;;;;;;9.20;4.82;;;;;;;;;;5071093;28;20185;-68
2022/11/13 13:43:10;;;;;;;6.32;5.03;;;;;;;;;;5070729;28;20256;-69
2022/11/13 13:45:53;;;;;;;6.93;4.70;;;;;;;;;;5059209;28;20201;-68
2022/11/13 13:48:22;;;;;;;7.13;4.88;;;;;;;;;;5070182;28;20588;-68
2022/11/13 13:50:49;;;;;;;8.48;5.53;;;;;;;;;;5069954;28;20201;-68
2022/11/13 13:53:21;;;;;;;7.68;5.25;;;;;;;;;;5070501;28;20184;-68
2022/11/13 13:55:50;;;;;;;9.57;5.05;;;;;;;;;;5069938;28;20572;-68
2022/11/13 13:58:21;;;;;;;6.32;5.60;;;;;;;;;;5074800;28;20192;-68
2022/11/13 14:00:56;;;;;;;7.60;5.80;;;;;;;;;;5076873;28;20619;-68
2022/11/13 14:03:23;;;;;;;7.28;5.93;;;;;;;;;;5074175;28;20191;-68
2022/11/13 14:05:49;;;;;;;9.05;5.25;;;;;;;;;;5072790;28;20188;-68
2022/11/13 14:08:17;;;;;;;9.48;5.53;;;;;;;;;;5069086;28;20188;-68
2022/11/13 14:10:45;;;;;;;7.97;5.47;;;;;;;;;;5069853;28;20208;-68
2022/11/13 14:13:12;;;;;;;8.20;5.63;;;;;;;;;;5071755;28;20188;-68
2022/11/13 14:15:37;;;;;;;5.75;5.00;;;;;;;;;;5068140;28;20678;-68
2022/11/13 14:18:12;;;;;;;8.77;5.60;;;;;;;;;;5072717;28;20185;-69
2022/11/13 14:20:47;;;;;;;7.75;4.82;;;;;;;;;;5071398;28;20180;-67
2022/11/13 14:23:18;;;;;;;6.28;4.72;;;;;;;;;;5069491;28;20194;-67
2022/11/13 14:25:44;;;;;;;5.38;4.57;;;;;;;;;;5072610;28;20184;-67
2022/11/13 14:28:18;;;;;;;10.30;4.32;;;;;;;;;;5071447;28;20513;-67
2022/11/13 14:30:43;;;;;;;7.25;4.80;;;;;;;;;;5078123;28;20224;-67
2022/11/13 14:33:13;;;;;;;7.97;4.40;;;;;;;;;;5074716;28;20247;-67
2022/11/13 14:35:39;;;;;;;5.30;4.25;;;;;;;;;;5069278;28;20180;-67
2022/11/13 14:38:16;;;;;;;5.32;3.90;;;;;;;;;;5067228;28;20172;-67